sensor_id;sensor_type;location;lat;lon;timestamp;P1;durP1;ratioP1;P2;durP2;ratioP2
22336;SDS011;14992;50.844;4.418;2023-08-07T00:01:00;5.88;;;1.90;;
22336;SDS011;14992;50.844;4.418;2023-08-07T00:03:29;9.40;;;2.30;;
22336;SDS011;14992;50.844;4.418;2023-08-07T00:05:58;4.82;;;1.88;;
22336;SDS011;14992;50.844;4.418;2023-08-07T00:08:26;5.32;;;2.40;;
22336;SDS011;14992;50.844;4.418;2023-08-07T00:11:03;5.78;;;2.10;;
22336;SDS011;14992;50.844;4.418;2023-08-07T00:13:33;4.13;;;1.90;;
22336;SDS011;14992;50.844;4.418;2023-08-07T00:16:03;5.13;;;2.33;;
22336;SDS011;14992;50.844;4.418;2023-08-07T00:18:32;5.60;;;2.35;;
22336;SDS011;14992;50.844;4.418;2023-08-07T00:21:01;8.15;;;1.90;;
22336;SDS011;14992;50.844;4.418;2023-08-07T00:23:30;4.95;;;1.88;;
22336;SDS011;14992;50.844;4.418;2023-08-07T00:25:58;10.15;;;2.00;;
22336;SDS011;14992;50.844;4.418;2023-08-07T00:28:27;4.65;;;2.13;;
22336;SDS011;14992;50.844;4.418;2023-08-07T00:30:56;4.15;;;1.90;;
22336;SDS011;14992;50.844;4.418;2023-08-07T00:33:26;6.72;;;1.98;;
22336;SDS011;14992;50.844;4.418;2023-08-07T00:35:55;3.47;;;1.77;;
22336;SDS011;14992;50.844;4.418;2023-08-07T00:38:24;4.43;;;1.90;;
22336;SDS011;14992;50.844;4.418;2023-08-07T00:40:53;6.50;;;2.42;;
22336;SDS011;14992;50.844;4.418;2023-08-07T00:43:22;5.65;;;1.98;;
22336;SDS011;14992;50.844;4.418;2023-08-07T00:45:51;4.22;;;1.98;;
22336;SDS011;14992;50.844;4.418;2023-08-07T00:48:20;5.40;;;2.25;;
22336;SDS011;14992;50.844;4.418;2023-08-07T00:50:50;9.02;;;2.15;;
22336;SDS011;14992;50.844;4.418;2023-08-07T00:53:20;6.35;;;2.65;;
22336;SDS011;14992;50.844;4.418;2023-08-07T00:55:49;5.75;;;1.88;;
22336;SDS011;14992;50.844;4.418;2023-08-07T00:58:18;4.35;;;2.75;;
22336;SDS011;14992;50.844;4.418;2023-08-07T01:00:47;4.30;;;2.03;;
22336;SDS011;14992;50.844;4.418;2023-08-07T01:03:16;3.90;;;1.95;;
22336;SDS011;14992;50.844;4.418;2023-08-07T01:05:45;6.18;;;1.88;;
22336;SDS011;14992;50.844;4.418;2023-08-07T01:08:15;4.40;;;1.85;;
22336;SDS011;14992;50.844;4.418;2023-08-07T01:10:48;3.85;;;1.98;;
22336;SDS011;14992;50.844;4.418;2023-08-07T01:13:37;3.63;;;1.60;;
22336;SDS011;14992;50.844;4.418;2023-08-07T01:16:20;4.72;;;2.33;;
22336;SDS011;14992;50.844;4.418;2023-08-07T01:18:55;4.60;;;1.80;;
22336;SDS011;14992;50.844;4.418;2023-08-07T01:21:27;5.32;;;2.03;;
22336;SDS011;14992;50.844;4.418;2023-08-07T01:23:57;4.75;;;1.83;;
22336;SDS011;14992;50.844;4.418;2023-08-07T01:26:26;5.75;;;1.80;;
22336;SDS011;14992;50.844;4.418;2023-08-07T01:28:57;5.30;;;1.85;;
22336;SDS011;14992;50.844;4.418;2023-08-07T01:31:33;4.10;;;2.10;;
22336;SDS011;14992;50.844;4.418;2023-08-07T01:34:05;4.55;;;1.55;;
22336;SDS011;14992;50.844;4.418;2023-08-07T01:36:38;5.00;;;1.88;;
22336;SDS011;14992;50.844;4.418;2023-08-07T01:39:09;4.97;;;1.35;;
22336;SDS011;14992;50.844;4.418;2023-08-07T01:41:40;6.93;;;1.80;;
22336;SDS011;14992;50.844;4.418;2023-08-07T01:44:09;3.90;;;1.65;;
22336;SDS011;14992;50.844;4.418;2023-08-07T01:46:38;3.70;;;1.50;;
22336;SDS011;14992;50.844;4.418;2023-08-07T01:49:07;5.28;;;1.95;;
22336;SDS011;14992;50.844;4.418;2023-08-07T01:51:37;3.15;;;1.65;;
22336;SDS011;14992;50.844;4.418;2023-08-07T01:54:06;5.38;;;1.70;;
22336;SDS011;14992;50.844;4.418;2023-08-07T01:56:36;4.22;;;1.30;;
22336;SDS011;14992;50.844;4.418;2023-08-07T01:59:05;6.28;;;1.73;;
22336;SDS011;14992;50.844;4.418;2023-08-07T02:01:34;4.03;;;1.70;;
22336;SDS011;14992;50.844;4.418;2023-08-07T02:04:03;6.43;;;1.77;;
22336;SDS011;14992;50.844;4.418;2023-08-07T02:06:32;4.40;;;1.75;;
22336;SDS011;14992;50.844;4.418;2023-08-07T02:09:01;6.18;;;1.67;;
22336;SDS011;14992;50.844;4.418;2023-08-07T02:11:29;3.03;;;1.75;;
22336;SDS011;14992;50.844;4.418;2023-08-07T02:14:00;4.15;;;1.52;;
22336;SDS011;14992;50.844;4.418;2023-08-07T02:16:29;5.57;;;1.77;;
22336;SDS011;14992;50.844;4.418;2023-08-07T02:18:58;4.63;;;1.75;;
22336;SDS011;14992;50.844;4.418;2023-08-07T02:21:27;6.10;;;1.83;;
22336;SDS011;14992;50.844;4.418;2023-08-07T02:23:56;4.05;;;2.13;;
22336;SDS011;14992;50.844;4.418;2023-08-07T02:26:25;3.22;;;1.70;;
22336;SDS011;14992;50.844;4.418;2023-08-07T02:28:54;6.78;;;1.42;;
22336;SDS011;14992;50.844;4.418;2023-08-07T02:31:25;6.85;;;2.25;;
22336;SDS011;14992;50.844;4.418;2023-08-07T02:33:54;2.20;;;1.30;;
22336;SDS011;14992;50.844;4.418;2023-08-07T02:36:23;3.05;;;1.50;;
22336;SDS011;14992;50.844;4.418;2023-08-07T02:38:52;6.68;;;1.60;;
22336;SDS011;14992;50.844;4.418;2023-08-07T02:41:20;4.45;;;1.65;;
22336;SDS011;14992;50.844;4.418;2023-08-07T02:43:49;3.83;;;1.65;;
22336;SDS011;14992;50.844;4.418;2023-08-07T02:46:18;5.45;;;2.05;;
22336;SDS011;14992;50.844;4.418;2023-08-07T02:48:48;2.65;;;1.77;;
22336;SDS011;14992;50.844;4.418;2023-08-07T02:51:17;5.00;;;1.45;;
22336;SDS011;14992;50.844;4.418;2023-08-07T02:53:46;3.65;;;1.50;;
22336;SDS011;14992;50.844;4.418;2023-08-07T02:56:15;4.72;;;1.73;;
22336;SDS011;14992;50.844;4.418;2023-08-07T02:58:44;4.25;;;2.10;;
22336;SDS011;14992;50.844;4.418;2023-08-07T03:01:12;7.45;;;1.70;;
22336;SDS011;14992;50.844;4.418;2023-08-07T03:03:41;2.95;;;1.50;;
22336;SDS011;14992;50.844;4.418;2023-08-07T03:06:11;8.43;;;1.60;;
22336;SDS011;14992;50.844;4.418;2023-08-07T03:08:40;2.67;;;1.60;;
22336;SDS011;14992;50.844;4.418;2023-08-07T03:11:10;2.92;;;1.63;;
22336;SDS011;14992;50.844;4.418;2023-08-07T03:13:38;3.10;;;1.52;;
22336;SDS011;14992;50.844;4.418;2023-08-07T03:16:09;5.50;;;1.75;;
22336;SDS011;14992;50.844;4.418;2023-08-07T03:18:38;4.68;;;1.75;;
22336;SDS011;14992;50.844;4.418;2023-08-07T03:21:06;4.75;;;2.05;;
22336;SDS011;14992;50.844;4.418;2023-08-07T03:23:36;2.60;;;1.45;;
22336;SDS011;14992;50.844;4.418;2023-08-07T03:26:07;5.65;;;2.28;;
22336;SDS011;14992;50.844;4.418;2023-08-07T03:28:47;3.20;;;1.83;;
22336;SDS011;14992;50.844;4.418;2023-08-07T03:31:17;4.45;;;1.58;;
22336;SDS011;14992;50.844;4.418;2023-08-07T03:33:46;4.60;;;1.45;;
22336;SDS011;14992;50.844;4.418;2023-08-07T03:36:17;6.60;;;1.70;;
22336;SDS011;14992;50.844;4.418;2023-08-07T03:38:47;4.57;;;1.92;;
22336;SDS011;14992;50.844;4.418;2023-08-07T03:41:16;5.20;;;2.03;;
22336;SDS011;14992;50.844;4.418;2023-08-07T03:43:45;3.33;;;1.38;;
22336;SDS011;14992;50.844;4.418;2023-08-07T03:46:14;3.63;;;2.00;;
22336;SDS011;14992;50.844;4.418;2023-08-07T03:48:43;4.47;;;2.33;;
22336;SDS011;14992;50.844;4.418;2023-08-07T03:51:12;4.70;;;1.80;;
22336;SDS011;14992;50.844;4.418;2023-08-07T03:53:47;7.20;;;2.13;;
22336;SDS011;14992;50.844;4.418;2023-08-07T03:56:16;5.40;;;1.90;;
22336;SDS011;14992;50.844;4.418;2023-08-07T03:58:45;4.25;;;1.67;;
22336;SDS011;14992;50.844;4.418;2023-08-07T04:01:17;4.38;;;1.77;;
22336;SDS011;14992;50.844;4.418;2023-08-07T04:03:46;3.55;;;2.03;;
22336;SDS011;14992;50.844;4.418;2023-08-07T04:06:15;9.45;;;2.75;;
22336;SDS011;14992;50.844;4.418;2023-08-07T04:08:44;6.07;;;1.90;;
22336;SDS011;14992;50.844;4.418;2023-08-07T04:11:15;5.90;;;1.73;;
22336;SDS011;14992;50.844;4.418;2023-08-07T04:13:44;4.97;;;1.80;;
22336;SDS011;14992;50.844;4.418;2023-08-07T04:16:13;3.40;;;2.15;;
22336;SDS011;14992;50.844;4.418;2023-08-07T04:18:42;7.15;;;1.85;;
22336;SDS011;14992;50.844;4.418;2023-08-07T04:21:11;4.65;;;1.55;;
22336;SDS011;14992;50.844;4.418;2023-08-07T04:23:40;3.75;;;1.58;;
22336;SDS011;14992;50.844;4.418;2023-08-07T04:26:09;3.67;;;1.90;;
22336;SDS011;14992;50.844;4.418;2023-08-07T04:28:39;4.43;;;1.80;;
22336;SDS011;14992;50.844;4.418;2023-08-07T04:31:08;3.63;;;2.05;;
22336;SDS011;14992;50.844;4.418;2023-08-07T04:33:37;3.65;;;1.92;;
22336;SDS011;14992;50.844;4.418;2023-08-07T04:36:06;5.03;;;1.90;;
22336;SDS011;14992;50.844;4.418;2023-08-07T04:38:34;4.72;;;1.67;;
22336;SDS011;14992;50.844;4.418;2023-08-07T04:41:03;6.80;;;1.85;;
22336;SDS011;14992;50.844;4.418;2023-08-07T04:43:32;3.58;;;1.77;;
22336;SDS011;14992;50.844;4.418;2023-08-07T04:46:02;4.90;;;1.85;;
22336;SDS011;14992;50.844;4.418;2023-08-07T04:48:31;2.70;;;1.70;;
22336;SDS011;14992;50.844;4.418;2023-08-07T04:51:00;6.45;;;2.28;;
22336;SDS011;14992;50.844;4.418;2023-08-07T04:53:28;6.75;;;2.33;;
22336;SDS011;14992;50.844;4.418;2023-08-07T04:55:58;4.30;;;2.50;;
22336;SDS011;14992;50.844;4.418;2023-08-07T04:58:27;5.22;;;2.28;;
22336;SDS011;14992;50.844;4.418;2023-08-07T05:00:58;3.20;;;2.10;;
22336;SDS011;14992;50.844;4.418;2023-08-07T05:03:29;4.75;;;1.95;;
22336;SDS011;14992;50.844;4.418;2023-08-07T05:05:58;6.10;;;2.72;;
22336;SDS011;14992;50.844;4.418;2023-08-07T05:08:27;9.30;;;3.35;;
22336;SDS011;14992;50.844;4.418;2023-08-07T05:10:56;4.75;;;1.80;;
22336;SDS011;14992;50.844;4.418;2023-08-07T05:13:25;4.78;;;1.90;;
22336;SDS011;14992;50.844;4.418;2023-08-07T05:15:54;4.78;;;1.80;;
22336;SDS011;14992;50.844;4.418;2023-08-07T05:18:22;3.50;;;1.83;;
22336;SDS011;14992;50.844;4.418;2023-08-07T05:20:52;5.43;;;1.98;;
22336;SDS011;14992;50.844;4.418;2023-08-07T05:23:21;4.68;;;1.75;;
22336;SDS011;14992;50.844;4.418;2023-08-07T05:25:50;7.25;;;2.17;;
22336;SDS011;14992;50.844;4.418;2023-08-07T05:28:19;5.88;;;2.00;;
22336;SDS011;14992;50.844;4.418;2023-08-07T05:30:48;7.57;;;1.98;;
22336;SDS011;14992;50.844;4.418;2023-08-07T05:33:17;4.45;;;1.70;;
22336;SDS011;14992;50.844;4.418;2023-08-07T05:35:46;7.07;;;1.98;;
22336;SDS011;14992;50.844;4.418;2023-08-07T05:38:16;5.82;;;2.05;;
22336;SDS011;14992;50.844;4.418;2023-08-07T05:40:45;5.60;;;1.98;;
22336;SDS011;14992;50.844;4.418;2023-08-07T05:43:14;4.15;;;1.70;;
22336;SDS011;14992;50.844;4.418;2023-08-07T05:45:43;5.18;;;2.10;;
22336;SDS011;14992;50.844;4.418;2023-08-07T05:48:13;5.55;;;1.55;;
22336;SDS011;14992;50.844;4.418;2023-08-07T05:50:43;7.47;;;1.75;;
22336;SDS011;14992;50.844;4.418;2023-08-07T05:53:11;5.10;;;1.85;;
22336;SDS011;14992;50.844;4.418;2023-08-07T05:55:42;3.42;;;2.00;;
22336;SDS011;14992;50.844;4.418;2023-08-07T05:58:10;8.85;;;2.00;;
22336;SDS011;14992;50.844;4.418;2023-08-07T06:00:39;4.55;;;1.73;;
22336;SDS011;14992;50.844;4.418;2023-08-07T06:03:08;6.45;;;2.72;;
22336;SDS011;14992;50.844;4.418;2023-08-07T06:05:37;4.43;;;2.00;;
22336;SDS011;14992;50.844;4.418;2023-08-07T06:08:05;5.20;;;1.88;;
22336;SDS011;14992;50.844;4.418;2023-08-07T06:10:34;8.63;;;2.10;;
22336;SDS011;14992;50.844;4.418;2023-08-07T06:13:04;4.72;;;2.30;;
22336;SDS011;14992;50.844;4.418;2023-08-07T06:15:33;3.63;;;1.90;;
22336;SDS011;14992;50.844;4.418;2023-08-07T06:18:02;6.85;;;2.25;;
22336;SDS011;14992;50.844;4.418;2023-08-07T06:20:31;6.30;;;2.00;;
22336;SDS011;14992;50.844;4.418;2023-08-07T06:23:02;4.30;;;2.00;;
22336;SDS011;14992;50.844;4.418;2023-08-07T06:25:31;8.93;;;2.08;;
22336;SDS011;14992;50.844;4.418;2023-08-07T06:27:59;6.03;;;1.80;;
22336;SDS011;14992;50.844;4.418;2023-08-07T06:30:29;5.93;;;2.17;;
22336;SDS011;14992;50.844;4.418;2023-08-07T06:32:59;5.88;;;2.20;;
22336;SDS011;14992;50.844;4.418;2023-08-07T06:35:28;5.95;;;2.20;;
22336;SDS011;14992;50.844;4.418;2023-08-07T06:37:57;9.68;;;2.10;;
22336;SDS011;14992;50.844;4.418;2023-08-07T06:40:25;9.00;;;2.85;;
22336;SDS011;14992;50.844;4.418;2023-08-07T06:42:54;4.00;;;2.33;;
22336;SDS011;14992;50.844;4.418;2023-08-07T06:45:23;4.82;;;2.20;;
22336;SDS011;14992;50.844;4.418;2023-08-07T06:47:54;4.75;;;1.70;;
22336;SDS011;14992;50.844;4.418;2023-08-07T06:50:24;6.03;;;2.05;;
22336;SDS011;14992;50.844;4.418;2023-08-07T06:52:53;5.28;;;1.83;;
22336;SDS011;14992;50.844;4.418;2023-08-07T06:55:22;4.75;;;2.15;;
22336;SDS011;14992;50.844;4.418;2023-08-07T06:57:51;4.22;;;1.95;;
22336;SDS011;14992;50.844;4.418;2023-08-07T07:00:21;5.35;;;2.13;;
22336;SDS011;14992;50.844;4.418;2023-08-07T07:02:50;7.22;;;2.08;;
22336;SDS011;14992;50.844;4.418;2023-08-07T07:05:21;6.18;;;2.05;;
22336;SDS011;14992;50.844;4.418;2023-08-07T07:07:50;6.43;;;2.17;;
22336;SDS011;14992;50.844;4.418;2023-08-07T07:10:18;9.73;;;2.17;;
22336;SDS011;14992;50.844;4.418;2023-08-07T07:12:47;4.18;;;2.05;;
22336;SDS011;14992;50.844;4.418;2023-08-07T07:15:16;6.82;;;2.10;;
22336;SDS011;14992;50.844;4.418;2023-08-07T07:17:45;7.95;;;2.35;;
22336;SDS011;14992;50.844;4.418;2023-08-07T07:20:14;4.32;;;1.85;;
22336;SDS011;14992;50.844;4.418;2023-08-07T07:22:45;4.90;;;2.15;;
22336;SDS011;14992;50.844;4.418;2023-08-07T07:25:14;6.72;;;1.85;;
22336;SDS011;14992;50.844;4.418;2023-08-07T07:27:43;12.25;;;5.18;;
22336;SDS011;14992;50.844;4.418;2023-08-07T07:30:12;7.38;;;3.05;;
22336;SDS011;14992;50.844;4.418;2023-08-07T07:32:42;7.55;;;2.38;;
22336;SDS011;14992;50.844;4.418;2023-08-07T07:35:11;4.70;;;2.10;;
22336;SDS011;14992;50.844;4.418;2023-08-07T07:37:40;8.27;;;2.25;;
22336;SDS011;14992;50.844;4.418;2023-08-07T07:40:11;4.13;;;1.98;;
22336;SDS011;14992;50.844;4.418;2023-08-07T07:42:40;4.70;;;2.00;;
22336;SDS011;14992;50.844;4.418;2023-08-07T07:45:09;3.28;;;1.50;;
22336;SDS011;14992;50.844;4.418;2023-08-07T07:47:39;4.07;;;1.55;;
22336;SDS011;14992;50.844;4.418;2023-08-07T07:50:09;5.97;;;1.80;;
22336;SDS011;14992;50.844;4.418;2023-08-07T07:52:40;4.57;;;2.05;;
22336;SDS011;14992;50.844;4.418;2023-08-07T07:55:11;4.15;;;2.03;;
22336;SDS011;14992;50.844;4.418;2023-08-07T07:57:41;3.78;;;2.03;;
22336;SDS011;14992;50.844;4.418;2023-08-07T08:00:10;8.38;;;1.60;;
22336;SDS011;14992;50.844;4.418;2023-08-07T08:02:43;5.05;;;1.70;;
22336;SDS011;14992;50.844;4.418;2023-08-07T08:05:12;6.30;;;1.80;;
22336;SDS011;14992;50.844;4.418;2023-08-07T08:07:42;4.22;;;1.88;;
22336;SDS011;14992;50.844;4.418;2023-08-07T08:10:12;4.50;;;1.90;;
22336;SDS011;14992;50.844;4.418;2023-08-07T08:12:41;2.88;;;1.63;;
22336;SDS011;14992;50.844;4.418;2023-08-07T08:15:11;2.78;;;2.00;;
22336;SDS011;14992;50.844;4.418;2023-08-07T08:17:40;5.38;;;2.15;;
22336;SDS011;14992;50.844;4.418;2023-08-07T08:20:09;4.32;;;1.80;;
22336;SDS011;14992;50.844;4.418;2023-08-07T08:22:42;3.03;;;1.73;;
22336;SDS011;14992;50.844;4.418;2023-08-07T08:25:12;2.70;;;1.42;;
22336;SDS011;14992;50.844;4.418;2023-08-07T08:27:41;6.20;;;1.77;;
22336;SDS011;14992;50.844;4.418;2023-08-07T08:30:10;3.13;;;1.48;;
22336;SDS011;14992;50.844;4.418;2023-08-07T08:35:12;1.95;;;1.20;;
22336;SDS011;14992;50.844;4.418;2023-08-07T08:37:41;3.13;;;1.70;;
22336;SDS011;14992;50.844;4.418;2023-08-07T08:43:28;2.47;;;1.48;;
22336;SDS011;14992;50.844;4.418;2023-08-07T08:46:03;6.57;;;1.92;;
22336;SDS011;14992;50.844;4.418;2023-08-07T08:48:34;2.35;;;1.20;;
22336;SDS011;14992;50.844;4.418;2023-08-07T08:51:06;2.88;;;1.60;;
22336;SDS011;14992;50.844;4.418;2023-08-07T08:56:07;4.45;;;1.70;;
22336;SDS011;14992;50.844;4.418;2023-08-07T08:58:37;4.90;;;2.45;;
22336;SDS011;14992;50.844;4.418;2023-08-07T09:01:07;3.17;;;1.40;;
22336;SDS011;14992;50.844;4.418;2023-08-07T09:03:37;3.05;;;1.50;;
22336;SDS011;14992;50.844;4.418;2023-08-07T09:06:05;3.38;;;1.73;;
22336;SDS011;14992;50.844;4.418;2023-08-07T09:08:35;3.67;;;1.40;;
22336;SDS011;14992;50.844;4.418;2023-08-07T09:11:06;1.70;;;1.48;;
22336;SDS011;14992;50.844;4.418;2023-08-07T09:13:36;4.63;;;1.77;;
22336;SDS011;14992;50.844;4.418;2023-08-07T09:16:07;4.13;;;1.40;;
22336;SDS011;14992;50.844;4.418;2023-08-07T09:18:37;7.78;;;2.42;;
22336;SDS011;14992;50.844;4.418;2023-08-07T09:21:07;2.95;;;1.65;;
22336;SDS011;14992;50.844;4.418;2023-08-07T09:23:37;3.33;;;1.70;;
22336;SDS011;14992;50.844;4.418;2023-08-07T09:26:06;2.95;;;1.25;;
22336;SDS011;14992;50.844;4.418;2023-08-07T09:28:35;2.88;;;1.58;;
22336;SDS011;14992;50.844;4.418;2023-08-07T09:31:06;3.13;;;1.30;;
22336;SDS011;14992;50.844;4.418;2023-08-07T09:33:36;3.22;;;1.50;;
22336;SDS011;14992;50.844;4.418;2023-08-07T09:36:07;4.65;;;1.48;;
22336;SDS011;14992;50.844;4.418;2023-08-07T09:38:36;2.55;;;1.60;;
22336;SDS011;14992;50.844;4.418;2023-08-07T09:41:05;5.70;;;1.48;;
22336;SDS011;14992;50.844;4.418;2023-08-07T09:43:34;3.05;;;1.55;;
22336;SDS011;14992;50.844;4.418;2023-08-07T09:46:05;4.25;;;1.60;;
22336;SDS011;14992;50.844;4.418;2023-08-07T09:48:39;2.58;;;1.42;;
22336;SDS011;14992;50.844;4.418;2023-08-07T09:51:08;4.72;;;1.52;;
22336;SDS011;14992;50.844;4.418;2023-08-07T09:53:38;2.50;;;1.10;;
22336;SDS011;14992;50.844;4.418;2023-08-07T09:56:07;4.20;;;1.35;;
22336;SDS011;14992;50.844;4.418;2023-08-07T09:58:36;2.88;;;1.13;;
22336;SDS011;14992;50.844;4.418;2023-08-07T10:01:25;3.17;;;1.38;;
22336;SDS011;14992;50.844;4.418;2023-08-07T10:03:54;4.82;;;1.77;;
22336;SDS011;14992;50.844;4.418;2023-08-07T10:06:23;2.20;;;1.10;;
22336;SDS011;14992;50.844;4.418;2023-08-07T10:08:52;2.90;;;1.50;;
22336;SDS011;14992;50.844;4.418;2023-08-07T10:11:23;4.25;;;1.60;;
22336;SDS011;14992;50.844;4.418;2023-08-07T10:13:52;2.90;;;1.45;;
22336;SDS011;14992;50.844;4.418;2023-08-07T10:16:25;1.88;;;1.15;;
22336;SDS011;14992;50.844;4.418;2023-08-07T10:18:55;1.70;;;1.15;;
22336;SDS011;14992;50.844;4.418;2023-08-07T10:21:24;3.33;;;1.15;;
22336;SDS011;14992;50.844;4.418;2023-08-07T10:23:53;1.77;;;1.15;;
22336;SDS011;14992;50.844;4.418;2023-08-07T10:26:25;2.42;;;1.33;;
22336;SDS011;14992;50.844;4.418;2023-08-07T10:28:57;1.85;;;0.98;;
22336;SDS011;14992;50.844;4.418;2023-08-07T10:31:30;2.13;;;1.40;;
22336;SDS011;14992;50.844;4.418;2023-08-07T10:34:01;4.07;;;1.23;;
22336;SDS011;14992;50.844;4.418;2023-08-07T10:36:31;2.42;;;1.60;;
22336;SDS011;14992;50.844;4.418;2023-08-07T10:39:07;2.33;;;1.20;;
22336;SDS011;14992;50.844;4.418;2023-08-07T10:41:41;3.50;;;1.13;;
22336;SDS011;14992;50.844;4.418;2023-08-07T10:44:17;1.80;;;1.08;;
22336;SDS011;14992;50.844;4.418;2023-08-07T10:46:48;3.20;;;0.80;;
22336;SDS011;14992;50.844;4.418;2023-08-07T10:49:30;2.22;;;1.17;;
22336;SDS011;14992;50.844;4.418;2023-08-07T10:52:04;2.08;;;1.10;;
22336;SDS011;14992;50.844;4.418;2023-08-07T10:54:37;2.25;;;1.10;;
22336;SDS011;14992;50.844;4.418;2023-08-07T10:57:10;2.35;;;1.27;;
22336;SDS011;14992;50.844;4.418;2023-08-07T10:59:44;1.38;;;0.98;;
22336;SDS011;14992;50.844;4.418;2023-08-07T11:02:23;5.75;;;1.40;;
22336;SDS011;14992;50.844;4.418;2023-08-07T11:04:53;1.85;;;1.23;;
22336;SDS011;14992;50.844;4.418;2023-08-07T11:07:24;2.03;;;1.35;;
22336;SDS011;14992;50.844;4.418;2023-08-07T11:09:53;2.65;;;1.40;;
22336;SDS011;14992;50.844;4.418;2023-08-07T11:12:24;1.50;;;1.13;;
22336;SDS011;14992;50.844;4.418;2023-08-07T11:14:53;3.25;;;1.67;;
22336;SDS011;14992;50.844;4.418;2023-08-07T11:17:25;1.80;;;1.23;;
22336;SDS011;14992;50.844;4.418;2023-08-07T11:19:55;1.95;;;1.75;;
22336;SDS011;14992;50.844;4.418;2023-08-07T11:22:25;2.92;;;1.58;;
22336;SDS011;14992;50.844;4.418;2023-08-07T11:24:54;1.85;;;1.50;;
22336;SDS011;14992;50.844;4.418;2023-08-07T11:27:23;2.35;;;1.25;;
22336;SDS011;14992;50.844;4.418;2023-08-07T11:29:52;1.63;;;1.05;;
22336;SDS011;14992;50.844;4.418;2023-08-07T11:32:21;3.88;;;1.40;;
22336;SDS011;14992;50.844;4.418;2023-08-07T11:34:51;1.63;;;1.05;;
22336;SDS011;14992;50.844;4.418;2023-08-07T11:37:20;1.45;;;1.10;;
22336;SDS011;14992;50.844;4.418;2023-08-07T11:39:49;2.40;;;1.48;;
22336;SDS011;14992;50.844;4.418;2023-08-07T11:42:18;2.40;;;1.13;;
22336;SDS011;14992;50.844;4.418;2023-08-07T11:44:50;3.67;;;2.45;;
22336;SDS011;14992;50.844;4.418;2023-08-07T11:47:18;4.57;;;1.55;;
22336;SDS011;14992;50.844;4.418;2023-08-07T11:49:48;3.13;;;1.33;;
22336;SDS011;14992;50.844;4.418;2023-08-07T11:52:18;2.08;;;1.35;;
22336;SDS011;14992;50.844;4.418;2023-08-07T11:54:48;2.25;;;1.23;;
22336;SDS011;14992;50.844;4.418;2023-08-07T11:57:17;3.10;;;1.27;;
22336;SDS011;14992;50.844;4.418;2023-08-07T11:59:49;4.95;;;1.60;;
22336;SDS011;14992;50.844;4.418;2023-08-07T12:02:22;3.83;;;1.52;;
22336;SDS011;14992;50.844;4.418;2023-08-07T12:04:56;2.25;;;1.15;;
22336;SDS011;14992;50.844;4.418;2023-08-07T12:07:28;1.75;;;1.38;;
22336;SDS011;14992;50.844;4.418;2023-08-07T12:10:01;3.85;;;1.45;;
22336;SDS011;14992;50.844;4.418;2023-08-07T12:12:32;2.30;;;1.20;;
22336;SDS011;14992;50.844;4.418;2023-08-07T12:15:02;2.30;;;1.35;;
22336;SDS011;14992;50.844;4.418;2023-08-07T12:17:35;2.47;;;1.30;;
22336;SDS011;14992;50.844;4.418;2023-08-07T12:20:05;1.60;;;1.20;;
22336;SDS011;14992;50.844;4.418;2023-08-07T12:22:41;3.15;;;1.20;;
22336;SDS011;14992;50.844;4.418;2023-08-07T12:25:11;2.03;;;1.10;;
22336;SDS011;14992;50.844;4.418;2023-08-07T12:27:40;1.20;;;1.10;;
22336;SDS011;14992;50.844;4.418;2023-08-07T12:30:10;2.47;;;1.08;;
22336;SDS011;14992;50.844;4.418;2023-08-07T12:32:40;1.33;;;1.10;;
22336;SDS011;14992;50.844;4.418;2023-08-07T12:35:09;2.13;;;1.40;;
22336;SDS011;14992;50.844;4.418;2023-08-07T12:37:43;1.80;;;1.20;;
22336;SDS011;14992;50.844;4.418;2023-08-07T12:40:12;2.33;;;1.10;;
22336;SDS011;14992;50.844;4.418;2023-08-07T12:42:49;1.52;;;1.10;;
22336;SDS011;14992;50.844;4.418;2023-08-07T12:45:18;1.17;;;1.00;;
22336;SDS011;14992;50.844;4.418;2023-08-07T12:48:10;2.58;;;1.20;;
22336;SDS011;14992;50.844;4.418;2023-08-07T12:50:39;3.70;;;1.10;;
22336;SDS011;14992;50.844;4.418;2023-08-07T12:53:09;2.90;;;1.50;;
22336;SDS011;14992;50.844;4.418;2023-08-07T12:55:38;2.38;;;1.70;;
22336;SDS011;14992;50.844;4.418;2023-08-07T12:58:07;2.35;;;1.30;;
22336;SDS011;14992;50.844;4.418;2023-08-07T13:00:36;2.47;;;1.10;;
22336;SDS011;14992;50.844;4.418;2023-08-07T13:03:05;1.92;;;1.20;;
22336;SDS011;14992;50.844;4.418;2023-08-07T13:05:34;3.67;;;1.00;;
22336;SDS011;14992;50.844;4.418;2023-08-07T13:08:04;1.35;;;1.08;;
22336;SDS011;14992;50.844;4.418;2023-08-07T13:10:35;3.10;;;1.17;;
22336;SDS011;14992;50.844;4.418;2023-08-07T13:13:03;1.92;;;1.33;;
22336;SDS011;14992;50.844;4.418;2023-08-07T13:15:32;3.40;;;1.77;;
22336;SDS011;14992;50.844;4.418;2023-08-07T13:18:01;1.88;;;1.02;;
22336;SDS011;14992;50.844;4.418;2023-08-07T13:20:31;2.63;;;1.00;;
22336;SDS011;14992;50.844;4.418;2023-08-07T13:23:01;3.72;;;1.00;;
22336;SDS011;14992;50.844;4.418;2023-08-07T13:30:33;1.90;;;0.80;;
22336;SDS011;14992;50.844;4.418;2023-08-07T13:33:04;1.30;;;0.95;;
22336;SDS011;14992;50.844;4.418;2023-08-07T13:35:33;2.50;;;1.10;;
22336;SDS011;14992;50.844;4.418;2023-08-07T13:38:02;1.23;;;0.60;;
22336;SDS011;14992;50.844;4.418;2023-08-07T13:40:32;1.50;;;0.80;;
22336;SDS011;14992;50.844;4.418;2023-08-07T13:43:03;1.58;;;0.60;;
22336;SDS011;14992;50.844;4.418;2023-08-07T13:45:36;2.78;;;0.70;;
22336;SDS011;14992;50.844;4.418;2023-08-07T13:48:05;0.98;;;0.70;;
22336;SDS011;14992;50.844;4.418;2023-08-07T13:50:36;2.00;;;0.93;;
22336;SDS011;14992;50.844;4.418;2023-08-07T13:53:06;0.98;;;0.75;;
22336;SDS011;14992;50.844;4.418;2023-08-07T13:55:41;1.00;;;0.82;;
22336;SDS011;14992;50.844;4.418;2023-08-07T13:58:12;2.45;;;0.77;;
22336;SDS011;14992;50.844;4.418;2023-08-07T14:00:43;2.65;;;1.00;;
22336;SDS011;14992;50.844;4.418;2023-08-07T14:03:12;2.53;;;0.90;;
22336;SDS011;14992;50.844;4.418;2023-08-07T14:05:41;1.45;;;0.90;;
22336;SDS011;14992;50.844;4.418;2023-08-07T14:08:10;1.35;;;0.80;;
22336;SDS011;14992;50.844;4.418;2023-08-07T14:10:39;1.83;;;0.70;;
22336;SDS011;14992;50.844;4.418;2023-08-07T14:13:09;3.63;;;0.90;;
22336;SDS011;14992;50.844;4.418;2023-08-07T14:15:40;1.02;;;0.80;;
22336;SDS011;14992;50.844;4.418;2023-08-07T14:18:09;1.08;;;0.75;;
22336;SDS011;14992;50.844;4.418;2023-08-07T14:20:38;1.23;;;0.63;;
22336;SDS011;14992;50.844;4.418;2023-08-07T14:23:26;1.10;;;0.80;;
22336;SDS011;14992;50.844;4.418;2023-08-07T14:25:58;1.45;;;0.90;;
22336;SDS011;14992;50.844;4.418;2023-08-07T14:28:27;2.40;;;1.25;;
22336;SDS011;14992;50.844;4.418;2023-08-07T14:30:58;2.85;;;0.70;;
22336;SDS011;14992;50.844;4.418;2023-08-07T14:33:28;1.23;;;0.70;;
22336;SDS011;14992;50.844;4.418;2023-08-07T14:35:57;1.95;;;0.57;;
22336;SDS011;14992;50.844;4.418;2023-08-07T14:38:27;1.15;;;0.70;;
22336;SDS011;14992;50.844;4.418;2023-08-07T14:40:56;3.78;;;0.98;;
22336;SDS011;14992;50.844;4.418;2023-08-07T14:43:26;1.00;;;0.68;;
22336;SDS011;14992;50.844;4.418;2023-08-07T14:45:59;2.65;;;1.00;;
22336;SDS011;14992;50.844;4.418;2023-08-07T14:48:28;3.00;;;0.70;;
22336;SDS011;14992;50.844;4.418;2023-08-07T14:50:56;1.00;;;0.70;;
22336;SDS011;14992;50.844;4.418;2023-08-07T14:53:25;1.02;;;0.70;;
22336;SDS011;14992;50.844;4.418;2023-08-07T14:55:55;1.13;;;0.70;;
22336;SDS011;14992;50.844;4.418;2023-08-07T14:58:24;3.35;;;0.68;;
22336;SDS011;14992;50.844;4.418;2023-08-07T15:00:53;2.35;;;0.50;;
22336;SDS011;14992;50.844;4.418;2023-08-07T15:03:24;2.13;;;0.60;;
22336;SDS011;14992;50.844;4.418;2023-08-07T15:05:52;1.02;;;0.80;;
22336;SDS011;14992;50.844;4.418;2023-08-07T15:08:21;1.60;;;0.80;;
22336;SDS011;14992;50.844;4.418;2023-08-07T15:10:51;1.08;;;0.60;;
22336;SDS011;14992;50.844;4.418;2023-08-07T15:13:20;1.77;;;1.20;;
22336;SDS011;14992;50.844;4.418;2023-08-07T15:15:49;1.63;;;0.70;;
22336;SDS011;14992;50.844;4.418;2023-08-07T15:18:18;0.70;;;0.70;;